Zim Qingdao — A8IZ2 — position and weather

sailwx.info

Track history (hours):
 
Tides and Currents Weather Stations Pressure Air Temp Water Temp Dewpoint Dewpoint Depression Visibility Wind Speed Wind Dir Waves Ship Positions

Zim Qingdao

Last reported at 2014-Oct-01 11:33 UTC. Time now 2014-Oct-01 12:29 UTC.
Position N 32°07' W 081°08'.

Length 260.61 m; beam 32.25 m; draft 12.6 m.

Type: Cargo ship. MMSI: 636012904.

Date/timePositionNaut miles runAvg speedWind from/ knotsBaromVisibWave heightAir tempDewpointWater temp
2014-Oct-01 11:33N 32°07' W 081°08'0 0.0
2014-Oct-01 10:33N 32°07' W 081°08'0 0.3
2014-Oct-01 09:31N 32°08' W 081°08'3 2.6
2014-Oct-01 08:32N 32°06' W 081°06'5 5.1
2014-Oct-01 07:34N 32°06' W 081°00'39814.1
2014-Sep-30 03:24N 36°12' W 074°42'1416.1
2014-Sep-30 02:33N 36°25' W 074°39'9916.4
2014-Sep-29 20:33N 38°01' W 074°13'2216.7
2014-Sep-29 19:13N 38°23' W 074°07'1116.9
2014-Sep-29 18:33N 38°34' W 074°04'1717.2
2014-Sep-29 17:33N 38°51' W 073°60'1717.1
2014-Sep-29 16:33N 39°08' W 073°55'1817.1
2014-Sep-29 15:30N 39°25' W 073°52'1616.9
2014-Sep-29 14:33N 39°41' W 073°52'1716.7
2014-Sep-29 13:33N 39°58' W 073°51'1716.5
2014-Sep-29 12:33N 40°15' W 073°49'1312.7
2014-Sep-29 11:33N 40°27' W 073°51'1515.0
2014-Sep-29 10:33N 40°38' W 074°04'4 3.9
2014-Sep-29 09:33N 40°40' W 074°08'1 0.7
2014-Sep-29 08:29N 40°41' W 074°09'0 0.0
2014-Sep-29 07:29N 40°41' W 074°09'0 0.0
2014-Sep-29 06:29N 40°41' W 074°09'0 0.0
2014-Sep-29 05:29N 40°41' W 074°09'0 0.0
2014-Sep-29 04:05N 40°41' W 074°09'0 0.0
2014-Sep-29 03:29N 40°41' W 074°09'0 0.0
2014-Sep-29 02:32N 40°41' W 074°09'0 0.0
2014-Sep-29 01:26N 40°41' W 074°09'0 0.0
2014-Sep-29 00:29N 40°41' W 074°09'0 0.0
2014-Sep-28 22:32N 40°41' W 074°09'0 0.0
2014-Sep-28 20:32N 40°41' W 074°09'0 0.0
2014-Sep-28 19:17N 40°41' W 074°09'0 0.0
2014-Sep-28 18:17N 40°41' W 074°09'0 0.0
2014-Sep-28 17:23N 40°41' W 074°09'0 0.0
2014-Sep-28 16:29N 40°41' W 074°09'0 0.0
2014-Sep-28 15:32N 40°41' W 074°09'2 2.4
2014-Sep-28 14:34N 40°39' W 074°09'7 6.7
2014-Sep-28 13:34N 40°34' W 074°02'1313.1
2014-Sep-28 12:34N 40°27' W 073°48'1413.7
2014-Sep-28 11:34N 40°28' W 073°30'1615.6
2014-Sep-28 10:33N 40°30' W 073°09'1615.7
2014-Sep-28 09:34N 40°30' W 072°49'1615.5
2014-Sep-28 08:34N 40°31' W 072°28'1515.4
2014-Sep-28 07:34N 40°31' W 072°08'1615.8
2014-Sep-28 06:33N 40°31' W 071°47'1615.6
2014-Sep-28 05:34N 40°32' W 071°27'1615.6
2014-Sep-28 04:34N 40°32' W 071°06'1615.8
2014-Sep-28 03:34N 40°32' W 070°45'1615.8
2014-Sep-28 02:34N 40°33' W 070°25'1615.8
2014-Sep-28 01:34N 40°33' W 070°04'1615.7
2014-Sep-28 00:33N 40°33' W 069°43'3316.3
2014-Sep-27 22:33N 40°34' W 069°00'2216.5
2014-Sep-27 21:13N 40°42' W 068°33'3116.4
2014-Sep-27 19:21N 40°54' W 067°56'  
2014-Sep-24 12:00N 43°12' W 045°36'11018.3 170 / 221022.010.8 1.522.019.0
2014-Sep-24 06:00N 43°06' W 043°06'39116.3 110 / 131026.010.8 21.018.0
2014-Sep-23 06:00N 42°18' W 034°18'40817.0 010 / 181033.010.8 17.012.0
2014-Sep-22 06:00N 40°54' W 025°24'20417.0 350 / 201022.010.8 19.016.0
2014-Sep-21 18:00N 40°00' W 021°06'   330 / 151015.0 5.4 20.019.0
Track history (hours):
 
Tides and Currents Weather Stations Pressure Air Temp Water Temp Dewpoint Dewpoint Depression Visibility Wind Speed Wind Dir Waves Ship Positions

Zim Qingdao

Last reported at 2014-Oct-01 11:33 UTC. Time now 2014-Oct-01 12:29 UTC.
Position N 32°07' W 081°08'.

Length 260.61 m; beam 32.25 m; draft 12.6 m.

Type: Cargo ship. MMSI: 636012904.

Date/timePositionNaut miles runAvg speedWind from/ knotsBaromVisibWave heightAir tempDewpointWater temp
2014-Oct-01 11:33N 32°07' W 081°08'0 0.0
2014-Oct-01 10:33N 32°07' W 081°08'0 0.3
2014-Oct-01 09:31N 32°08' W 081°08'3 2.6
2014-Oct-01 08:32N 32°06' W 081°06'5 5.1
2014-Oct-01 07:34N 32°06' W 081°00'39814.1
2014-Sep-30 03:24N 36°12' W 074°42'1416.1
2014-Sep-30 02:33N 36°25' W 074°39'9916.4
2014-Sep-29 20:33N 38°01' W 074°13'2216.7
2014-Sep-29 19:13N 38°23' W 074°07'1116.9
2014-Sep-29 18:33N 38°34' W 074°04'1717.2
2014-Sep-29 17:33N 38°51' W 073°60'1717.1
2014-Sep-29 16:33N 39°08' W 073°55'1817.1
2014-Sep-29 15:30N 39°25' W 073°52'1616.9
2014-Sep-29 14:33N 39°41' W 073°52'1716.7
2014-Sep-29 13:33N 39°58' W 073°51'1716.5
2014-Sep-29 12:33N 40°15' W 073°49'1312.7
2014-Sep-29 11:33N 40°27' W 073°51'1515.0
2014-Sep-29 10:33N 40°38' W 074°04'4 3.9
2014-Sep-29 09:33N 40°40' W 074°08'1 0.7
2014-Sep-29 08:29N 40°41' W 074°09'0 0.0
2014-Sep-29 07:29N 40°41' W 074°09'0 0.0
2014-Sep-29 06:29N 40°41' W 074°09'0 0.0
2014-Sep-29 05:29N 40°41' W 074°09'0 0.0
2014-Sep-29 04:05N 40°41' W 074°09'0 0.0
2014-Sep-29 03:29N 40°41' W 074°09'0 0.0
2014-Sep-29 02:32N 40°41' W 074°09'0 0.0
2014-Sep-29 01:26N 40°41' W 074°09'0 0.0
2014-Sep-29 00:29N 40°41' W 074°09'0 0.0
2014-Sep-28 22:32N 40°41' W 074°09'0 0.0
2014-Sep-28 20:32N 40°41' W 074°09'0 0.0
2014-Sep-28 19:17N 40°41' W 074°09'0 0.0
2014-Sep-28 18:17N 40°41' W 074°09'0 0.0
2014-Sep-28 17:23N 40°41' W 074°09'0 0.0
2014-Sep-28 16:29N 40°41' W 074°09'0 0.0
2014-Sep-28 15:32N 40°41' W 074°09'2 2.4
2014-Sep-28 14:34N 40°39' W 074°09'7 6.7
2014-Sep-28 13:34N 40°34' W 074°02'1313.1
2014-Sep-28 12:34N 40°27' W 073°48'1413.7
2014-Sep-28 11:34N 40°28' W 073°30'1615.6
2014-Sep-28 10:33N 40°30' W 073°09'1615.7
2014-Sep-28 09:34N 40°30' W 072°49'1615.5
2014-Sep-28 08:34N 40°31' W 072°28'1515.4
2014-Sep-28 07:34N 40°31' W 072°08'1615.8
2014-Sep-28 06:33N 40°31' W 071°47'1615.6
2014-Sep-28 05:34N 40°32' W 071°27'1615.6
2014-Sep-28 04:34N 40°32' W 071°06'1615.8
2014-Sep-28 03:34N 40°32' W 070°45'1615.8
2014-Sep-28 02:34N 40°33' W 070°25'1615.8
2014-Sep-28 01:34N 40°33' W 070°04'1615.7
2014-Sep-28 00:33N 40°33' W 069°43'3316.3
2014-Sep-27 22:33N 40°34' W 069°00'2216.5
2014-Sep-27 21:13N 40°42' W 068°33'3116.4
2014-Sep-27 19:21N 40°54' W 067°56'  
2014-Sep-24 12:00N 43°12' W 045°36'11018.3 170 / 221022.010.8 1.522.019.0
2014-Sep-24 06:00N 43°06' W 043°06'39116.3 110 / 131026.010.8 21.018.0
2014-Sep-23 06:00N 42°18' W 034°18'40817.0 010 / 181033.010.8 17.012.0
2014-Sep-22 06:00N 40°54' W 025°24'20417.0 350 / 201022.010.8 19.016.0
2014-Sep-21 18:00N 40°00' W 021°06'   330 / 151015.0 5.4 20.019.0

Dump ship's entire track history